sensor_id;sensor_type;location;lat;lon;timestamp;temperature;humidity
61412;DHT22;47278;49.732;7.690;2022-08-14T00:01:48;14.80;99.90
61412;DHT22;47278;49.732;7.690;2022-08-14T00:04:14;14.80;99.90
61412;DHT22;47278;49.732;7.690;2022-08-14T00:06:39;14.70;99.90
61412;DHT22;47278;49.732;7.690;2022-08-14T00:09:05;14.80;99.90
61412;DHT22;47278;49.732;7.690;2022-08-14T00:11:31;14.70;99.90
61412;DHT22;47278;49.732;7.690;2022-08-14T00:13:56;14.70;99.90
61412;DHT22;47278;49.732;7.690;2022-08-14T00:16:22;14.80;99.90
61412;DHT22;47278;49.732;7.690;2022-08-14T00:18:50;14.70;99.90
61412;DHT22;47278;49.732;7.690;2022-08-14T00:21:16;14.80;99.90
61412;DHT22;47278;49.732;7.690;2022-08-14T00:23:42;17.30;99.90
61412;DHT22;47278;49.732;7.690;2022-08-14T00:26:07;14.60;99.90
61412;DHT22;47278;49.732;7.690;2022-08-14T00:28:33;14.60;99.90
61412;DHT22;47278;49.732;7.690;2022-08-14T00:30:59;14.50;99.90
61412;DHT22;47278;49.732;7.690;2022-08-14T00:33:25;14.50;99.90
61412;DHT22;47278;49.732;7.690;2022-08-14T00:35:51;14.50;99.90
61412;DHT22;47278;49.732;7.690;2022-08-14T00:38:18;14.40;99.90
61412;DHT22;47278;49.732;7.690;2022-08-14T00:40:43;14.30;99.90
61412;DHT22;47278;49.732;7.690;2022-08-14T00:43:09;14.40;99.90
61412;DHT22;47278;49.732;7.690;2022-08-14T00:45:36;14.30;99.90
61412;DHT22;47278;49.732;7.690;2022-08-14T00:48:02;14.40;99.90
61412;DHT22;47278;49.732;7.690;2022-08-14T00:50:28;14.40;99.90
61412;DHT22;47278;49.732;7.690;2022-08-14T00:52:55;14.30;99.90
61412;DHT22;47278;49.732;7.690;2022-08-14T00:55:21;14.30;99.90
61412;DHT22;47278;49.732;7.690;2022-08-14T00:57:47;14.20;99.90
61412;DHT22;47278;49.732;7.690;2022-08-14T01:00:33;14.20;99.90
61412;DHT22;47278;49.732;7.690;2022-08-14T01:02:59;14.00;99.90
61412;DHT22;47278;49.732;7.690;2022-08-14T01:05:25;14.00;99.90
61412;DHT22;47278;49.732;7.690;2022-08-14T01:07:52;14.10;99.90
61412;DHT22;47278;49.732;7.690;2022-08-14T01:10:18;15.80;99.90
61412;DHT22;47278;49.732;7.690;2022-08-14T01:12:48;14.00;99.90
61412;DHT22;47278;49.732;7.690;2022-08-14T01:15:14;14.20;99.90
61412;DHT22;47278;49.732;7.690;2022-08-14T01:17:41;14.10;99.90
61412;DHT22;47278;49.732;7.690;2022-08-14T01:20:26;14.20;99.90
61412;DHT22;47278;49.732;7.690;2022-08-14T01:23:11;14.20;99.90
61412;DHT22;47278;49.732;7.690;2022-08-14T01:25:37;14.10;99.90
61412;DHT22;47278;49.732;7.690;2022-08-14T01:28:03;14.10;99.90
61412;DHT22;47278;49.732;7.690;2022-08-14T01:30:29;14.10;99.90
61412;DHT22;47278;49.732;7.690;2022-08-14T01:32:56;14.20;99.90
61412;DHT22;47278;49.732;7.690;2022-08-14T01:35:22;14.20;99.90
61412;DHT22;47278;49.732;7.690;2022-08-14T01:37:47;14.10;99.90
61412;DHT22;47278;49.732;7.690;2022-08-14T01:40:13;14.00;99.90
61412;DHT22;47278;49.732;7.690;2022-08-14T01:42:42;13.90;99.90
61412;DHT22;47278;49.732;7.690;2022-08-14T01:45:08;13.80;99.90
61412;DHT22;47278;49.732;7.690;2022-08-14T01:47:37;13.80;99.90
61412;DHT22;47278;49.732;7.690;2022-08-14T01:50:03;13.60;99.90
61412;DHT22;47278;49.732;7.690;2022-08-14T01:52:34;13.50;99.90
61412;DHT22;47278;49.732;7.690;2022-08-14T01:55:03;13.40;99.90
61412;DHT22;47278;49.732;7.690;2022-08-14T01:57:31;13.30;99.90
61412;DHT22;47278;49.732;7.690;2022-08-14T01:59:57;13.40;99.90
61412;DHT22;47278;49.732;7.690;2022-08-14T02:02:23;13.40;99.90
61412;DHT22;47278;49.732;7.690;2022-08-14T02:04:48;13.50;99.90
61412;DHT22;47278;49.732;7.690;2022-08-14T02:07:14;13.50;99.90
61412;DHT22;47278;49.732;7.690;2022-08-14T02:09:41;13.60;99.90
61412;DHT22;47278;49.732;7.690;2022-08-14T02:12:07;13.50;99.90
61412;DHT22;47278;49.732;7.690;2022-08-14T02:14:33;13.50;99.90
61412;DHT22;47278;49.732;7.690;2022-08-14T02:16:59;13.40;99.90
61412;DHT22;47278;49.732;7.690;2022-08-14T02:19:29;13.20;99.90
61412;DHT22;47278;49.732;7.690;2022-08-14T02:21:56;13.20;99.90
61412;DHT22;47278;49.732;7.690;2022-08-14T02:24:23;13.30;99.90
61412;DHT22;47278;49.732;7.690;2022-08-14T02:26:50;13.30;99.90
61412;DHT22;47278;49.732;7.690;2022-08-14T02:29:19;13.30;99.90
61412;DHT22;47278;49.732;7.690;2022-08-14T02:31:47;13.30;99.90
61412;DHT22;47278;49.732;7.690;2022-08-14T02:34:18;13.10;99.90
61412;DHT22;47278;49.732;7.690;2022-08-14T02:36:44;13.00;99.90
61412;DHT22;47278;49.732;7.690;2022-08-14T02:39:11;13.00;99.90
61412;DHT22;47278;49.732;7.690;2022-08-14T02:41:37;13.10;99.90
61412;DHT22;47278;49.732;7.690;2022-08-14T02:44:03;13.10;99.90
61412;DHT22;47278;49.732;7.690;2022-08-14T02:46:30;13.00;99.90
61412;DHT22;47278;49.732;7.690;2022-08-14T02:48:56;13.10;99.90
61412;DHT22;47278;49.732;7.690;2022-08-14T02:51:21;13.00;99.90
61412;DHT22;47278;49.732;7.690;2022-08-14T02:53:47;13.00;99.90
61412;DHT22;47278;49.732;7.690;2022-08-14T02:56:13;13.00;99.90
61412;DHT22;47278;49.732;7.690;2022-08-14T02:58:41;12.90;99.90
61412;DHT22;47278;49.732;7.690;2022-08-14T03:01:07;12.90;99.90
61412;DHT22;47278;49.732;7.690;2022-08-14T03:03:34;12.90;99.90
61412;DHT22;47278;49.732;7.690;2022-08-14T03:06:02;12.90;99.90
61412;DHT22;47278;49.732;7.690;2022-08-14T03:08:28;12.80;99.90
61412;DHT22;47278;49.732;7.690;2022-08-14T03:11:01;11.40;99.90
61412;DHT22;47278;49.732;7.690;2022-08-14T03:13:31;12.90;99.90
61412;DHT22;47278;49.732;7.690;2022-08-14T03:15:57;12.80;99.90
61412;DHT22;47278;49.732;7.690;2022-08-14T03:18:24;12.70;99.90
61412;DHT22;47278;49.732;7.690;2022-08-14T03:20:49;12.60;99.90
61412;DHT22;47278;49.732;7.690;2022-08-14T03:23:16;12.70;99.90
61412;DHT22;47278;49.732;7.690;2022-08-14T03:25:42;12.70;99.90
61412;DHT22;47278;49.732;7.690;2022-08-14T03:28:08;12.70;99.90
61412;DHT22;47278;49.732;7.690;2022-08-14T03:30:34;12.70;99.90
61412;DHT22;47278;49.732;7.690;2022-08-14T03:33:01;12.70;99.90
61412;DHT22;47278;49.732;7.690;2022-08-14T03:35:27;12.60;99.90
61412;DHT22;47278;49.732;7.690;2022-08-14T03:37:54;12.60;99.90
61412;DHT22;47278;49.732;7.690;2022-08-14T03:40:20;12.60;99.90
61412;DHT22;47278;49.732;7.690;2022-08-14T03:42:47;12.60;99.90
61412;DHT22;47278;49.732;7.690;2022-08-14T03:45:12;12.60;99.90
61412;DHT22;47278;49.732;7.690;2022-08-14T03:47:39;12.50;99.90
61412;DHT22;47278;49.732;7.690;2022-08-14T03:50:06;12.40;99.90
61412;DHT22;47278;49.732;7.690;2022-08-14T03:52:33;12.40;99.90
61412;DHT22;47278;49.732;7.690;2022-08-14T03:55:00;12.40;99.90
61412;DHT22;47278;49.732;7.690;2022-08-14T03:57:27;12.30;99.90
61412;DHT22;47278;49.732;7.690;2022-08-14T03:59:56;12.30;99.90
61412;DHT22;47278;49.732;7.690;2022-08-14T04:02:22;12.30;99.90
61412;DHT22;47278;49.732;7.690;2022-08-14T04:04:48;12.30;99.90
61412;DHT22;47278;49.732;7.690;2022-08-14T04:07:14;12.30;99.90
61412;DHT22;47278;49.732;7.690;2022-08-14T04:09:41;12.30;99.90
61412;DHT22;47278;49.732;7.690;2022-08-14T04:12:07;12.30;99.90
61412;DHT22;47278;49.732;7.690;2022-08-14T04:14:32;12.20;99.90
61412;DHT22;47278;49.732;7.690;2022-08-14T04:16:58;12.30;99.90
61412;DHT22;47278;49.732;7.690;2022-08-14T04:19:23;12.20;99.90
61412;DHT22;47278;49.732;7.690;2022-08-14T04:21:49;12.10;99.90
61412;DHT22;47278;49.732;7.690;2022-08-14T04:24:17;12.10;99.90
61412;DHT22;47278;49.732;7.690;2022-08-14T04:26:42;12.10;99.90
61412;DHT22;47278;49.732;7.690;2022-08-14T04:29:10;12.20;99.90
61412;DHT22;47278;49.732;7.690;2022-08-14T04:31:37;12.20;99.90
61412;DHT22;47278;49.732;7.690;2022-08-14T04:34:03;12.20;99.90
61412;DHT22;47278;49.732;7.690;2022-08-14T04:36:30;12.10;99.90
61412;DHT22;47278;49.732;7.690;2022-08-14T04:38:56;12.10;99.90
61412;DHT22;47278;49.732;7.690;2022-08-14T04:41:40;12.20;99.90
61412;DHT22;47278;49.732;7.690;2022-08-14T04:44:24;12.20;99.90
61412;DHT22;47278;49.732;7.690;2022-08-14T04:46:50;12.30;99.90
61412;DHT22;47278;49.732;7.690;2022-08-14T04:49:34;12.40;99.90
61412;DHT22;47278;49.732;7.690;2022-08-14T04:52:00;12.40;99.90
61412;DHT22;47278;49.732;7.690;2022-08-14T04:54:28;12.40;99.90
61412;DHT22;47278;49.732;7.690;2022-08-14T04:56:54;12.40;99.90
61412;DHT22;47278;49.732;7.690;2022-08-14T04:59:20;12.40;99.90
61412;DHT22;47278;49.732;7.690;2022-08-14T05:01:46;12.30;99.90
61412;DHT22;47278;49.732;7.690;2022-08-14T05:04:12;12.40;99.90
61412;DHT22;47278;49.732;7.690;2022-08-14T05:06:37;12.40;99.90
61412;DHT22;47278;49.732;7.690;2022-08-14T05:09:04;12.50;99.90
61412;DHT22;47278;49.732;7.690;2022-08-14T05:11:29;12.50;99.90
61412;DHT22;47278;49.732;7.690;2022-08-14T05:14:01;12.40;99.90
61412;DHT22;47278;49.732;7.690;2022-08-14T05:16:27;12.50;99.90
61412;DHT22;47278;49.732;7.690;2022-08-14T05:18:55;12.50;99.90
61412;DHT22;47278;49.732;7.690;2022-08-14T05:21:20;12.50;99.90
61412;DHT22;47278;49.732;7.690;2022-08-14T05:23:46;12.60;99.90
61412;DHT22;47278;49.732;7.690;2022-08-14T05:26:12;12.60;99.90
61412;DHT22;47278;49.732;7.690;2022-08-14T05:28:41;12.70;99.90
61412;DHT22;47278;49.732;7.690;2022-08-14T05:31:13;12.70;99.90
61412;DHT22;47278;49.732;7.690;2022-08-14T05:33:41;12.90;99.90
61412;DHT22;47278;49.732;7.690;2022-08-14T05:36:08;13.00;99.90
61412;DHT22;47278;49.732;7.690;2022-08-14T05:38:40;13.00;99.90
61412;DHT22;47278;49.732;7.690;2022-08-14T05:41:08;13.00;99.90
61412;DHT22;47278;49.732;7.690;2022-08-14T05:43:34;13.00;99.90
61412;DHT22;47278;49.732;7.690;2022-08-14T05:46:00;13.10;99.90
61412;DHT22;47278;49.732;7.690;2022-08-14T05:48:26;13.10;99.90
61412;DHT22;47278;49.732;7.690;2022-08-14T05:50:52;13.20;99.90
61412;DHT22;47278;49.732;7.690;2022-08-14T05:53:22;13.30;99.90
61412;DHT22;47278;49.732;7.690;2022-08-14T05:55:48;13.30;99.90
61412;DHT22;47278;49.732;7.690;2022-08-14T05:58:14;13.30;99.90
61412;DHT22;47278;49.732;7.690;2022-08-14T06:00:41;13.40;99.90
61412;DHT22;47278;49.732;7.690;2022-08-14T06:03:08;13.50;99.90
61412;DHT22;47278;49.732;7.690;2022-08-14T06:05:34;13.60;99.90
61412;DHT22;47278;49.732;7.690;2022-08-14T06:08:00;13.70;99.90
61412;DHT22;47278;49.732;7.690;2022-08-14T06:10:26;13.80;99.90
61412;DHT22;47278;49.732;7.690;2022-08-14T06:12:52;13.90;99.90
61412;DHT22;47278;49.732;7.690;2022-08-14T06:15:18;14.00;99.90
61412;DHT22;47278;49.732;7.690;2022-08-14T06:17:50;14.10;99.90
61412;DHT22;47278;49.732;7.690;2022-08-14T06:20:17;14.30;99.90
61412;DHT22;47278;49.732;7.690;2022-08-14T06:22:42;14.50;99.90
61412;DHT22;47278;49.732;7.690;2022-08-14T06:25:09;14.60;99.90
61412;DHT22;47278;49.732;7.690;2022-08-14T06:27:39;14.80;99.90
61412;DHT22;47278;49.732;7.690;2022-08-14T06:30:09;14.90;99.90
61412;DHT22;47278;49.732;7.690;2022-08-14T06:32:35;15.00;99.90
61412;DHT22;47278;49.732;7.690;2022-08-14T06:35:04;15.10;99.90
61412;DHT22;47278;49.732;7.690;2022-08-14T06:37:46;15.30;99.90
61412;DHT22;47278;49.732;7.690;2022-08-14T06:40:14;15.40;99.90
61412;DHT22;47278;49.732;7.690;2022-08-14T06:42:40;15.50;99.90
61412;DHT22;47278;49.732;7.690;2022-08-14T06:45:06;15.60;99.90
61412;DHT22;47278;49.732;7.690;2022-08-14T06:47:36;15.70;99.90
61412;DHT22;47278;49.732;7.690;2022-08-14T06:50:05;15.80;99.90
61412;DHT22;47278;49.732;7.690;2022-08-14T06:52:31;16.00;99.90
61412;DHT22;47278;49.732;7.690;2022-08-14T06:54:57;16.20;99.90
61412;DHT22;47278;49.732;7.690;2022-08-14T06:57:24;14.20;99.90
61412;DHT22;47278;49.732;7.690;2022-08-14T06:59:49;16.50;99.90
61412;DHT22;47278;49.732;7.690;2022-08-14T07:02:15;16.60;99.90
61412;DHT22;47278;49.732;7.690;2022-08-14T07:04:59;16.70;99.90
61412;DHT22;47278;49.732;7.690;2022-08-14T07:07:44;16.90;99.90
61412;DHT22;47278;49.732;7.690;2022-08-14T07:10:10;17.00;99.90
61412;DHT22;47278;49.732;7.690;2022-08-14T07:12:36;18.80;99.90
61412;DHT22;47278;49.732;7.690;2022-08-14T07:15:02;17.30;99.90
61412;DHT22;47278;49.732;7.690;2022-08-14T07:17:28;17.50;99.90
61412;DHT22;47278;49.732;7.690;2022-08-14T07:19:53;17.80;99.90
61412;DHT22;47278;49.732;7.690;2022-08-14T07:22:19;18.20;99.90
61412;DHT22;47278;49.732;7.690;2022-08-14T07:24:45;18.50;99.90
61412;DHT22;47278;49.732;7.690;2022-08-14T07:27:10;18.80;99.90
61412;DHT22;47278;49.732;7.690;2022-08-14T07:29:36;19.00;99.90
61412;DHT22;47278;49.732;7.690;2022-08-14T07:32:01;19.20;99.90
61412;DHT22;47278;49.732;7.690;2022-08-14T07:34:27;19.50;99.90
61412;DHT22;47278;49.732;7.690;2022-08-14T07:36:53;17.50;99.90
61412;DHT22;47278;49.732;7.690;2022-08-14T07:39:19;19.90;99.90
61412;DHT22;47278;49.732;7.690;2022-08-14T07:41:44;20.20;99.90
61412;DHT22;47278;49.732;7.690;2022-08-14T07:44:10;20.30;99.90
61412;DHT22;47278;49.732;7.690;2022-08-14T07:46:36;20.60;99.90
61412;DHT22;47278;49.732;7.690;2022-08-14T07:49:02;20.90;99.90
61412;DHT22;47278;49.732;7.690;2022-08-14T07:51:28;21.10;99.90
61412;DHT22;47278;49.732;7.690;2022-08-14T07:53:54;21.30;99.90
61412;DHT22;47278;49.732;7.690;2022-08-14T07:56:19;21.60;99.90
61412;DHT22;47278;49.732;7.690;2022-08-14T07:58:45;22.00;99.90
61412;DHT22;47278;49.732;7.690;2022-08-14T08:01:10;22.10;99.90
61412;DHT22;47278;49.732;7.690;2022-08-14T08:03:37;22.30;99.90
61412;DHT22;47278;49.732;7.690;2022-08-14T08:06:05;22.60;99.90
61412;DHT22;47278;49.732;7.690;2022-08-14T08:08:32;22.70;99.90
61412;DHT22;47278;49.732;7.690;2022-08-14T08:10:58;22.80;99.90
61412;DHT22;47278;49.732;7.690;2022-08-14T08:13:25;22.80;99.90
61412;DHT22;47278;49.732;7.690;2022-08-14T08:15:52;23.00;99.90
61412;DHT22;47278;49.732;7.690;2022-08-14T08:18:23;23.10;99.90
61412;DHT22;47278;49.732;7.690;2022-08-14T08:20:50;23.40;99.90
61412;DHT22;47278;49.732;7.690;2022-08-14T08:23:18;23.50;99.90
61412;DHT22;47278;49.732;7.690;2022-08-14T08:25:45;23.70;99.90
61412;DHT22;47278;49.732;7.690;2022-08-14T08:28:16;23.70;99.90
61412;DHT22;47278;49.732;7.690;2022-08-14T08:30:46;23.80;99.90
61412;DHT22;47278;49.732;7.690;2022-08-14T08:33:12;24.00;99.90
61412;DHT22;47278;49.732;7.690;2022-08-14T08:35:40;24.10;99.90
61412;DHT22;47278;49.732;7.690;2022-08-14T08:38:11;24.40;99.90
61412;DHT22;47278;49.732;7.690;2022-08-14T08:40:38;24.60;99.90
61412;DHT22;47278;49.732;7.690;2022-08-14T08:43:15;24.80;99.90
61412;DHT22;47278;49.732;7.690;2022-08-14T08:45:41;25.00;99.90
61412;DHT22;47278;49.732;7.690;2022-08-14T08:48:07;25.20;99.90
61412;DHT22;47278;49.732;7.690;2022-08-14T08:50:36;25.30;99.90
61412;DHT22;47278;49.732;7.690;2022-08-14T08:53:04;25.40;99.90
61412;DHT22;47278;49.732;7.690;2022-08-14T08:58:06;25.70;99.90
61412;DHT22;47278;49.732;7.690;2022-08-14T09:00:32;25.90;99.90
61412;DHT22;47278;49.732;7.690;2022-08-14T09:03:00;26.10;99.90
61412;DHT22;47278;49.732;7.690;2022-08-14T09:05:26;26.30;99.90
61412;DHT22;47278;49.732;7.690;2022-08-14T09:07:53;26.30;99.90
61412;DHT22;47278;49.732;7.690;2022-08-14T09:10:18;26.40;99.90
61412;DHT22;47278;49.732;7.690;2022-08-14T09:12:44;26.70;99.90
61412;DHT22;47278;49.732;7.690;2022-08-14T09:15:10;26.80;99.90
61412;DHT22;47278;49.732;7.690;2022-08-14T09:17:35;27.10;99.90
61412;DHT22;47278;49.732;7.690;2022-08-14T09:20:02;27.20;99.90
61412;DHT22;47278;49.732;7.690;2022-08-14T09:22:29;27.30;99.90
61412;DHT22;47278;49.732;7.690;2022-08-14T09:24:54;27.20;99.90
61412;DHT22;47278;49.732;7.690;2022-08-14T09:27:20;27.40;99.90
61412;DHT22;47278;49.732;7.690;2022-08-14T09:29:46;27.30;99.90
61412;DHT22;47278;49.732;7.690;2022-08-14T09:32:12;27.30;99.90
61412;DHT22;47278;49.732;7.690;2022-08-14T09:45:30;28.40;99.90
61412;DHT22;47278;49.732;7.690;2022-08-14T09:47:57;28.30;99.90
61412;DHT22;47278;49.732;7.690;2022-08-14T09:51:22;28.50;99.90
61412;DHT22;47278;49.732;7.690;2022-08-14T09:53:58;28.70;99.90
61412;DHT22;47278;49.732;7.690;2022-08-14T09:56:24;28.50;99.90
61412;DHT22;47278;49.732;7.690;2022-08-14T09:58:50;28.60;99.90
61412;DHT22;47278;49.732;7.690;2022-08-14T10:01:17;29.00;99.90
61412;DHT22;47278;49.732;7.690;2022-08-14T10:03:53;28.90;99.90
61412;DHT22;47278;49.732;7.690;2022-08-14T10:06:21;28.70;99.90
61412;DHT22;47278;49.732;7.690;2022-08-14T10:08:53;29.00;99.90
61412;DHT22;47278;49.732;7.690;2022-08-14T10:11:25;29.60;99.90
61412;DHT22;47278;49.732;7.690;2022-08-14T10:13:52;29.90;99.90
61412;DHT22;47278;49.732;7.690;2022-08-14T10:16:19;30.10;99.90
61412;DHT22;47278;49.732;7.690;2022-08-14T10:18:48;30.00;99.90
61412;DHT22;47278;49.732;7.690;2022-08-14T10:21:16;29.90;99.90
61412;DHT22;47278;49.732;7.690;2022-08-14T10:23:46;29.80;99.90
61412;DHT22;47278;49.732;7.690;2022-08-14T10:26:15;30.00;99.90
61412;DHT22;47278;49.732;7.690;2022-08-14T10:28:43;30.00;99.90
61412;DHT22;47278;49.732;7.690;2022-08-14T10:31:24;30.20;99.90
61412;DHT22;47278;49.732;7.690;2022-08-14T10:33:58;30.20;99.90
61412;DHT22;47278;49.732;7.690;2022-08-14T10:36:25;30.30;99.90
61412;DHT22;47278;49.732;7.690;2022-08-14T10:38:55;30.50;99.90
61412;DHT22;47278;49.732;7.690;2022-08-14T10:41:22;30.30;99.80
61412;DHT22;47278;49.732;7.690;2022-08-14T10:44:11;30.30;99.90
61412;DHT22;47278;49.732;7.690;2022-08-14T10:46:39;30.70;99.90
61412;DHT22;47278;49.732;7.690;2022-08-14T10:49:05;31.00;99.30
61412;DHT22;47278;49.732;7.690;2022-08-14T10:51:33;31.50;99.20
61412;DHT22;47278;49.732;7.690;2022-08-14T10:54:03;31.20;97.80
61412;DHT22;47278;49.732;7.690;2022-08-14T10:56:30;31.40;99.50
61412;DHT22;47278;49.732;7.690;2022-08-14T10:59:04;31.20;97.20
61412;DHT22;47278;49.732;7.690;2022-08-14T11:01:31;31.30;97.30
61412;DHT22;47278;49.732;7.690;2022-08-14T11:03:57;31.40;95.50
61412;DHT22;47278;49.732;7.690;2022-08-14T11:06:22;31.60;95.60
61412;DHT22;47278;49.732;7.690;2022-08-14T11:08:48;31.60;93.80
61412;DHT22;47278;49.732;7.690;2022-08-14T11:11:14;31.70;92.80
61412;DHT22;47278;49.732;7.690;2022-08-14T11:13:42;31.70;93.10
61412;DHT22;47278;49.732;7.690;2022-08-14T11:16:08;31.60;93.80
61412;DHT22;47278;49.732;7.690;2022-08-14T11:18:35;31.80;94.20
61412;DHT22;47278;49.732;7.690;2022-08-14T11:21:00;32.10;94.00
61412;DHT22;47278;49.732;7.690;2022-08-14T11:25:52;32.30;90.00
61412;DHT22;47278;49.732;7.690;2022-08-14T11:28:21;32.00;91.10
61412;DHT22;47278;49.732;7.690;2022-08-14T11:30:47;32.40;92.50
61412;DHT22;47278;49.732;7.690;2022-08-14T11:33:13;32.30;91.10
61412;DHT22;47278;49.732;7.690;2022-08-14T11:35:39;32.30;91.70
61412;DHT22;47278;49.732;7.690;2022-08-14T11:38:05;32.10;90.20
61412;DHT22;47278;49.732;7.690;2022-08-14T11:40:32;32.50;90.90
61412;DHT22;47278;49.732;7.690;2022-08-14T11:43:00;32.40;90.20
61412;DHT22;47278;49.732;7.690;2022-08-14T11:45:27;32.60;84.90
61412;DHT22;47278;49.732;7.690;2022-08-14T11:47:53;32.40;83.40
61412;DHT22;47278;49.732;7.690;2022-08-14T11:50:22;32.40;84.80
61412;DHT22;47278;49.732;7.690;2022-08-14T11:52:49;32.80;88.50
61412;DHT22;47278;49.732;7.690;2022-08-14T11:55:15;33.00;84.70
61412;DHT22;47278;49.732;7.690;2022-08-14T11:57:41;33.10;84.20
61412;DHT22;47278;49.732;7.690;2022-08-14T12:00:09;33.20;81.40
61412;DHT22;47278;49.732;7.690;2022-08-14T12:02:36;32.80;83.60
61412;DHT22;47278;49.732;7.690;2022-08-14T12:05:02;33.40;79.90
61412;DHT22;47278;49.732;7.690;2022-08-14T12:07:27;33.60;81.50
61412;DHT22;47278;49.732;7.690;2022-08-14T12:09:54;33.50;77.70
61412;DHT22;47278;49.732;7.690;2022-08-14T12:12:23;33.30;79.80
61412;DHT22;47278;49.732;7.690;2022-08-14T12:14:54;33.00;78.30
61412;DHT22;47278;49.732;7.690;2022-08-14T12:17:25;33.00;77.40
61412;DHT22;47278;49.732;7.690;2022-08-14T12:19:52;33.20;78.10
61412;DHT22;47278;49.732;7.690;2022-08-14T12:22:33;33.30;78.00
61412;DHT22;47278;49.732;7.690;2022-08-14T12:24:59;33.20;77.20
61412;DHT22;47278;49.732;7.690;2022-08-14T12:27:35;33.00;77.70
61412;DHT22;47278;49.732;7.690;2022-08-14T12:30:01;33.60;79.00
61412;DHT22;47278;49.732;7.690;2022-08-14T12:32:37;33.90;76.70
61412;DHT22;47278;49.732;7.690;2022-08-14T12:35:03;34.00;74.60
61412;DHT22;47278;49.732;7.690;2022-08-14T12:37:29;34.40;76.60
61412;DHT22;47278;49.732;7.690;2022-08-14T12:40:18;34.40;73.30
61412;DHT22;47278;49.732;7.690;2022-08-14T12:42:43;34.40;73.40
61412;DHT22;47278;49.732;7.690;2022-08-14T12:45:10;34.10;73.90
61412;DHT22;47278;49.732;7.690;2022-08-14T12:47:42;33.90;74.20
61412;DHT22;47278;49.732;7.690;2022-08-14T12:50:08;33.70;74.30
61412;DHT22;47278;49.732;7.690;2022-08-14T12:52:38;33.90;73.60
61412;DHT22;47278;49.732;7.690;2022-08-14T12:55:13;33.90;73.20
61412;DHT22;47278;49.732;7.690;2022-08-14T12:57:40;33.70;71.10
61412;DHT22;47278;49.732;7.690;2022-08-14T13:02:37;33.60;69.70
61412;DHT22;47278;49.732;7.690;2022-08-14T13:05:03;33.50;70.60
61412;DHT22;47278;49.732;7.690;2022-08-14T13:07:29;33.20;71.80
61412;DHT22;47278;49.732;7.690;2022-08-14T13:09:55;32.80;69.90
61412;DHT22;47278;49.732;7.690;2022-08-14T13:12:22;33.00;71.00
61412;DHT22;47278;49.732;7.690;2022-08-14T13:14:55;33.10;70.80
61412;DHT22;47278;49.732;7.690;2022-08-14T13:17:22;32.50;70.90
61412;DHT22;47278;49.732;7.690;2022-08-14T13:19:48;32.40;74.10
61412;DHT22;47278;49.732;7.690;2022-08-14T13:22:15;32.60;74.00
61412;DHT22;47278;49.732;7.690;2022-08-14T13:24:41;32.70;72.70
61412;DHT22;47278;49.732;7.690;2022-08-14T13:27:07;32.50;71.30
61412;DHT22;47278;49.732;7.690;2022-08-14T13:29:35;32.10;70.70
61412;DHT22;47278;49.732;7.690;2022-08-14T13:32:03;32.10;72.40
61412;DHT22;47278;49.732;7.690;2022-08-14T13:34:30;32.50;72.10
61412;DHT22;47278;49.732;7.690;2022-08-14T13:36:55;32.80;68.70
61412;DHT22;47278;49.732;7.690;2022-08-14T13:39:21;32.00;67.50
61412;DHT22;47278;49.732;7.690;2022-08-14T13:41:47;32.20;73.00
61412;DHT22;47278;49.732;7.690;2022-08-14T13:44:13;32.40;73.80
61412;DHT22;47278;49.732;7.690;2022-08-14T13:46:42;32.50;71.40
61412;DHT22;47278;49.732;7.690;2022-08-14T13:49:09;32.50;70.50
61412;DHT22;47278;49.732;7.690;2022-08-14T13:51:43;32.40;72.00
61412;DHT22;47278;49.732;7.690;2022-08-14T13:54:14;32.50;71.60
61412;DHT22;47278;49.732;7.690;2022-08-14T13:56:40;33.20;72.50
61412;DHT22;47278;49.732;7.690;2022-08-14T13:59:06;33.40;71.20
61412;DHT22;47278;49.732;7.690;2022-08-14T14:01:33;33.50;70.60
61412;DHT22;47278;49.732;7.690;2022-08-14T14:04:02;33.30;68.40
61412;DHT22;47278;49.732;7.690;2022-08-14T14:06:28;33.80;68.50
61412;DHT22;47278;49.732;7.690;2022-08-14T14:08:55;33.50;69.30
61412;DHT22;47278;49.732;7.690;2022-08-14T14:11:21;33.60;71.90
61412;DHT22;47278;49.732;7.690;2022-08-14T14:13:51;35.60;68.90
61412;DHT22;47278;49.732;7.690;2022-08-14T14:16:18;34.60;69.90
61412;DHT22;47278;49.732;7.690;2022-08-14T14:18:48;36.00;67.80
61412;DHT22;47278;49.732;7.690;2022-08-14T14:21:19;34.20;65.80
61412;DHT22;47278;49.732;7.690;2022-08-14T14:23:45;33.60;65.50
61412;DHT22;47278;49.732;7.690;2022-08-14T14:26:16;33.50;66.00
61412;DHT22;47278;49.732;7.690;2022-08-14T14:28:42;33.60;65.10
61412;DHT22;47278;49.732;7.690;2022-08-14T14:31:09;33.20;66.60
61412;DHT22;47278;49.732;7.690;2022-08-14T14:33:36;33.70;66.90
61412;DHT22;47278;49.732;7.690;2022-08-14T14:36:06;33.80;65.40
61412;DHT22;47278;49.732;7.690;2022-08-14T14:38:33;33.70;65.60
61412;DHT22;47278;49.732;7.690;2022-08-14T14:40:58;33.50;64.60
61412;DHT22;47278;49.732;7.690;2022-08-14T14:43:25;33.70;66.00
61412;DHT22;47278;49.732;7.690;2022-08-14T14:45:53;34.00;64.10
61412;DHT22;47278;49.732;7.690;2022-08-14T14:48:19;33.40;65.10
61412;DHT22;47278;49.732;7.690;2022-08-14T14:50:45;33.50;65.50
61412;DHT22;47278;49.732;7.690;2022-08-14T14:53:10;33.00;64.00
61412;DHT22;47278;49.732;7.690;2022-08-14T14:55:37;33.10;63.80
61412;DHT22;47278;49.732;7.690;2022-08-14T14:58:04;33.50;64.70
61412;DHT22;47278;49.732;7.690;2022-08-14T15:00:30;33.60;64.00
61412;DHT22;47278;49.732;7.690;2022-08-14T15:02:55;33.60;64.70
61412;DHT22;47278;49.732;7.690;2022-08-14T15:05:22;33.30;64.00
61412;DHT22;47278;49.732;7.690;2022-08-14T15:07:49;32.90;64.30
61412;DHT22;47278;49.732;7.690;2022-08-14T15:10:16;32.70;66.80
61412;DHT22;47278;49.732;7.690;2022-08-14T15:12:42;32.80;68.10
61412;DHT22;47278;49.732;7.690;2022-08-14T15:15:08;33.00;65.20
61412;DHT22;47278;49.732;7.690;2022-08-14T15:17:34;33.00;66.90
61412;DHT22;47278;49.732;7.690;2022-08-14T15:20:02;32.80;65.40
61412;DHT22;47278;49.732;7.690;2022-08-14T15:22:28;32.50;65.20
61412;DHT22;47278;49.732;7.690;2022-08-14T15:24:54;32.50;67.00
61412;DHT22;47278;49.732;7.690;2022-08-14T15:27:19;32.30;65.40
61412;DHT22;47278;49.732;7.690;2022-08-14T15:29:45;32.20;64.90
61412;DHT22;47278;49.732;7.690;2022-08-14T15:32:11;32.10;65.80
61412;DHT22;47278;49.732;7.690;2022-08-14T15:34:36;32.00;64.80
61412;DHT22;47278;49.732;7.690;2022-08-14T15:37:05;31.90;65.90
61412;DHT22;47278;49.732;7.690;2022-08-14T15:39:31;31.80;67.20
61412;DHT22;47278;49.732;7.690;2022-08-14T15:41:57;31.80;68.10
61412;DHT22;47278;49.732;7.690;2022-08-14T15:44:26;31.70;65.90
61412;DHT22;47278;49.732;7.690;2022-08-14T15:46:53;31.70;65.90
61412;DHT22;47278;49.732;7.690;2022-08-14T15:49:19;31.70;66.20
61412;DHT22;47278;49.732;7.690;2022-08-14T15:51:44;31.70;64.50